Time;durP1;ratioP1;P1;durP2;ratioP2;P2;SDS_P1;SDS_P2;PMS_P1;PMS_P2;Temp;Humidity;BMP_temperature;BMP_pressure;BME280_temperature;BME280_humidity;BME280_pressure;Samples;Min_cycle;Max_cycle;Signal;HPM_P1;HPM_P2
2022/09/04 00:01:26;;;;;;;24.67;17.35;;;;;;;17.81;71.51;101211.63;5052577;28;20021;-60
2022/09/04 00:04:19;;;;;;;25.85;17.75;;;;;;;17.87;70.59;101229.03;5043949;28;20049;-60
2022/09/04 00:07:01;;;;;;;25.65;18.27;;;;;;;17.68;71.71;101221.16;5051305;28;20021;-60
2022/09/04 00:09:39;;;;;;;24.52;17.42;;;;;;;17.71;72.43;101226.88;5051806;28;20036;-60
2022/09/04 00:12:10;;;;;;;24.60;18.08;;;;;;;17.71;72.56;101229.69;5052138;28;20047;-59
2022/09/04 00:15:00;;;;;;;24.80;18.35;;;;;;;17.69;72.73;101231.19;5051175;28;20389;-61
2022/09/04 00:17:39;;;;;;;25.10;18.30;;;;;;;17.66;72.82;101234.69;5051480;28;20032;-60
2022/09/04 00:20:11;;;;;;;28.17;18.52;;;;;;;17.60;73.56;101236.91;5051127;28;20039;-60
2022/09/04 00:22:51;;;;;;;25.25;17.60;;;;;;;17.48;74.05;101243.25;5051646;28;20477;-61
2022/09/04 00:25:49;;;;;;;24.02;17.63;;;;;;;17.49;73.00;101242.09;5051739;28;20412;-59
2022/09/04 00:28:29;;;;;;;24.65;18.20;;;;;;;17.43;73.99;101240.66;5051411;28;20036;-60
2022/09/04 00:31:05;;;;;;;25.33;17.63;;;;;;;17.41;74.01;101256.97;5050975;28;20326;-59
2022/09/04 00:33:49;;;;;;;26.45;18.52;;;;;;;17.31;74.34;101247.84;5051172;28;20284;-59
2022/09/04 00:36:16;;;;;;;23.80;18.02;;;;;;;17.29;74.89;101247.34;5051508;28;20047;-59
2022/09/04 00:38:50;;;;;;;24.63;18.13;;;;;;;17.18;75.72;101246.16;5050573;28;20091;-60
2022/09/04 00:41:29;;;;;;;24.27;17.70;;;;;;;17.15;76.04;101252.44;5051699;28;20037;-59
2022/09/04 00:44:22;;;;;;;24.33;18.00;;;;;;;17.16;75.08;101256.88;5051685;28;20029;-60
2022/09/04 00:47:02;;;;;;;24.83;18.20;;;;;;;17.08;76.27;101252.97;5051434;28;20025;-59
2022/09/04 00:49:41;;;;;;;26.08;17.90;;;;;;;17.08;76.11;101257.75;5050849;28;20053;-61
2022/09/04 00:52:29;;;;;;;25.75;17.85;;;;;;;17.09;75.66;101253.81;5050519;28;20097;-61
2022/09/04 00:55:15;;;;;;;25.00;18.00;;;;;;;17.08;76.27;101260.56;5050558;28;20036;-62
2022/09/04 00:58:08;;;;;;;26.33;18.40;;;;;;;17.05;76.16;101258.44;5050869;28;20461;-60
2022/09/04 01:00:35;;;;;;;25.13;18.13;;;;;;;16.94;77.04;101255.22;5050818;28;20477;-59
2022/09/04 01:03:06;;;;;;;27.25;17.95;;;;;;;16.97;76.63;101265.72;5050602;28;20029;-61
2022/09/04 01:05:46;;;;;;;23.52;17.60;;;;;;;16.91;77.35;101265.06;5051238;28;20032;-60
2022/09/04 01:09:01;;;;;;;26.52;18.50;;;;;;;16.87;77.50;101274.47;5050981;28;20031;-63
2022/09/04 01:11:44;;;;;;;24.30;17.90;;;;;;;16.80;77.25;101270.22;4989610;28;20552;-59
2022/09/04 01:14:47;;;;;;;25.75;17.98;;;;;;;16.78;77.34;101280.13;5045268;28;20067;-61
2022/09/04 01:17:40;;;;;;;26.10;18.40;;;;;;;16.73;77.09;101289.50;5051505;28;20453;-62
2022/09/04 01:20:20;;;;;;;24.90;18.25;;;;;;;16.69;77.86;101282.94;5045712;28;20057;-62
2022/09/04 01:23:10;;;;;;;25.58;18.48;;;;;;;16.61;79.15;101295.81;5050146;28;20025;-60
2022/09/04 01:25:55;;;;;;;24.58;18.42;;;;;;;16.61;78.95;101292.19;5050587;28;20022;-60
2022/09/04 01:28:59;;;;;;;25.30;17.75;;;;;;;16.59;78.11;101291.72;5051385;28;20035;-61
2022/09/04 01:31:49;;;;;;;25.08;18.25;;;;;;;16.50;78.48;101277.81;5050602;28;20033;-61
2022/09/04 01:34:52;;;;;;;24.52;18.42;;;;;;;16.47;79.00;101289.63;5050749;28;20065;-61
2022/09/04 01:37:42;;;;;;;25.25;18.95;;;;;;;16.34;80.16;101286.72;5050698;28;20067;-61
2022/09/04 01:40:22;;;;;;;27.98;18.75;;;;;;;16.28;80.08;101282.50;5050050;28;20586;-61
2022/09/04 01:42:55;;;;;;;26.55;17.90;;;;;;;16.35;80.04;101293.16;5050115;28;20154;-61
2022/09/04 01:45:36;;;;;;;26.88;19.52;;;;;;;16.40;80.25;101300.53;5050637;28;20099;-60
2022/09/04 01:48:06;;;;;;;25.80;18.58;;;;;;;16.30;80.43;101301.69;5050991;28;20045;-60
2022/09/04 01:50:34;;;;;;;24.73;18.27;;;;;;;16.35;80.49;101307.09;5050539;28;20065;-59
2022/09/04 01:53:19;;;;;;;25.85;19.67;;;;;;;16.32;80.91;101300.22;5050408;28;20075;-59
2022/09/04 01:56:12;;;;;;;26.00;19.02;;;;;;;16.32;80.37;101300.22;5049562;28;20040;-59
2022/09/04 01:59:06;;;;;;;27.15;18.98;;;;;;;16.32;80.51;101304.97;5050118;28;20103;-60
2022/09/04 02:01:39;;;;;;;27.13;19.15;;;;;;;16.27;80.00;101303.19;5050826;28;20114;-60
2022/09/04 02:04:25;;;;;;;26.70;19.02;;;;;;;16.16;81.26;101299.94;5051147;28;20045;-60
2022/09/04 02:07:23;;;;;;;26.20;19.05;;;;;;;16.19;81.53;101312.41;5050233;28;20075;-59
2022/09/04 02:10:12;;;;;;;26.58;18.88;;;;;;;16.21;80.23;101324.06;5050524;28;20365;-60
2022/09/04 02:13:13;;;;;;;26.88;19.60;;;;;;;16.12;81.36;101324.09;5050544;28;20053;-59
2022/09/04 02:16:05;;;;;;;26.63;20.00;;;;;;;16.12;82.25;101334.44;5050649;28;20562;-60
2022/09/04 02:19:09;;;;;;;26.08;20.02;;;;;;;16.04;82.14;101333.31;5036385;28;20068;-60
2022/09/04 02:21:46;;;;;;;26.00;19.15;;;;;;;16.00;82.02;101341.53;5029252;28;20045;-60
2022/09/04 02:24:34;;;;;;;25.40;18.80;;;;;;;15.97;82.53;101338.56;5054139;28;20025;-60
2022/09/04 02:27:18;;;;;;;26.08;19.70;;;;;;;15.92;83.46;101336.78;5054175;28;20072;-60
2022/09/04 02:29:52;;;;;;;26.92;19.25;;;;;;;15.84;83.36;101330.06;5054203;28;20247;-61
2022/09/04 02:32:24;;;;;;;27.52;20.63;;;;;;;15.83;83.80;101336.75;5053889;28;20351;-60
2022/09/04 02:34:52;;;;;;;27.20;20.35;;;;;;;15.87;83.86;101350.91;5053379;28;20048;-62
2022/09/04 02:37:39;;;;;;;26.40;19.52;;;;;;;15.88;83.34;101339.41;5053038;28;20088;-61
2022/09/04 02:40:17;;;;;;;26.27;20.17;;;;;;;15.84;83.78;101340.41;5053335;28;20469;-59
2022/09/04 02:43:20;;;;;;;25.38;19.13;;;;;;;15.80;83.57;101344.97;5053312;28;20555;-58
2022/09/04 02:46:04;;;;;;;26.73;19.83;;;;;;;15.84;84.16;101340.41;5053040;28;20063;-59
2022/09/04 02:48:41;;;;;;;25.63;19.02;;;;;;;15.82;84.11;101345.44;5053451;28;20071;-60
2022/09/04 02:51:44;;;;;;;27.63;20.08;;;;;;;15.86;84.07;101352.06;5054234;28;20052;-59
2022/09/04 02:54:33;;;;;;;27.40;20.50;;;;;;;15.81;84.45;101354.97;5053303;28;20028;-59
2022/09/04 02:57:23;;;;;;;26.00;20.35;;;;;;;15.79;84.60;101355.31;5053324;28;20029;-59
2022/09/04 03:00:38;;;;;;;25.13;19.55;;;;;;;15.78;84.82;101356.47;5052703;28;20174;-58
2022/09/04 03:03:11;;;;;;;29.42;20.17;;;;;;;15.73;84.65;101363.03;5049291;28;20397;-59
2022/09/04 03:06:22;;;;;;;25.98;19.98;;;;;;;15.74;84.71;101366.63;5052888;28;20045;-60
2022/09/04 03:08:58;;;;;;;27.70;20.85;;;;;;;15.69;86.61;101366.78;5029826;28;20064;-58
2022/09/04 03:11:40;;;;;;;25.88;19.90;;;;;;;15.66;86.65;101371.06;5052146;28;20060;-58
2022/09/04 03:14:18;;;;;;;26.77;20.35;;;;;;;15.64;86.92;101362.22;5052355;28;20047;-59
2022/09/04 03:17:25;;;;;;;27.65;21.33;;;;;;;15.63;86.44;101363.34;5052470;28;20026;-61
2022/09/04 03:19:59;;;;;;;27.13;20.55;;;;;;;15.60;87.09;101367.63;5023447;28;20148;-58
2022/09/04 03:22:45;;;;;;;27.30;20.45;;;;;;;15.56;87.46;101363.84;5052125;28;20033;-60
2022/09/04 03:25:47;;;;;;;27.05;20.45;;;;;;;15.57;86.74;101353.53;5052767;28;20036;-58
2022/09/04 03:28:24;;;;;;;30.00;21.77;;;;;;;15.52;87.67;101354.50;5051833;28;20147;-59
2022/09/04 03:30:52;;;;;;;27.90;20.92;;;;;;;15.52;88.24;101368.44;5052858;28;20021;-58
2022/09/04 03:33:36;;;;;;;27.52;21.00;;;;;;;15.52;87.99;101360.06;5051997;28;20045;-59
2022/09/04 03:36:20;;;;;;;27.02;20.30;;;;;;;15.48;87.88;101361.06;5052439;28;20024;-60
2022/09/04 03:39:16;;;;;;;29.35;21.42;;;;;;;15.54;88.61;101371.69;5051873;28;20028;-59
2022/09/04 03:42:03;;;;;;;26.88;20.23;;;;;;;15.53;87.62;101372.88;5051761;28;20441;-60
2022/09/04 03:44:41;;;;;;;27.17;21.23;;;;;;;15.53;88.20;101374.81;5052409;28;20484;-59
2022/09/04 03:47:44;;;;;;;27.35;21.05;;;;;;;15.48;88.44;101364.66;5051774;28;20025;-60
2022/09/04 03:50:22;;;;;;;30.23;20.88;;;;;;;15.52;88.95;101374.03;5052589;28;20087;-62
2022/09/04 03:52:59;;;;;;;27.98;20.38;;;;;;;15.52;88.28;101378.75;5052274;28;20098;-60
2022/09/04 03:55:53;;;;;;;26.77;19.90;;;;;;;15.49;88.93;101383.03;5052047;28;20068;-61
2022/09/04 03:58:28;;;;;;;28.40;20.52;;;;;;;15.47;89.17;101376.94;5050281;28;20035;-59
2022/09/04 04:01:12;;;;;;;28.75;21.45;;;;;;;15.38;90.06;101376.13;5052298;28;20424;-59
2022/09/04 04:03:56;;;;;;;26.85;20.30;;;;;;;15.36;90.81;101386.78;5052199;28;20524;-60
2022/09/04 04:06:24;;;;;;;27.75;20.75;;;;;;;15.34;90.46;101386.31;5052797;28;20080;-61
2022/09/04 04:09:10;;;;;;;28.83;21.02;;;;;;;15.29;91.09;101390.06;5051613;28;20025;-59
2022/09/04 04:12:12;;;;;;;27.25;20.77;;;;;;;15.30;90.15;101388.91;5052001;28;20112;-61
2022/09/04 04:14:54;;;;;;;28.63;20.38;;;;;;;15.29;90.05;101387.28;5051778;28;20052;-60
2022/09/04 04:17:21;;;;;;;27.52;21.27;;;;;;;15.26;90.03;101396.28;5051575;28;20029;-61
2022/09/04 04:20:12;;;;;;;27.85;20.85;;;;;;;15.27;89.93;101404.31;5051831;28;20037;-60
2022/09/04 04:23:33;;;;;;;27.38;21.67;;;;;;;15.26;89.95;101404.63;5052217;28;20071;-60
2022/09/04 04:26:20;;;;;;;29.02;21.70;;;;;;;15.17;91.02;101403.78;5008911;28;20030;-60
2022/09/04 04:29:07;;;;;;;27.42;21.02;;;;;;;15.18;90.62;101405.44;5051875;28;20052;-60
2022/09/04 04:31:33;;;;;;;28.10;21.25;;;;;;;15.18;90.56;101417.41;5051053;28;20071;-60
2022/09/04 04:34:29;;;;;;;27.40;21.60;;;;;;;15.15;90.60;101420.84;5051691;28;20432;-59
2022/09/04 04:37:02;;;;;;;27.08;20.98;;;;;;;15.08;91.06;101414.91;5051047;28;20029;-61
2022/09/04 04:39:41;;;;;;;;;;;;;;;15.21;87.71;101425.13;5051904;28;20063;-60
2022/09/04 04:42:44;;;;;;;27.58;20.48;;;;;;;15.17;89.76;101423.31;5051173;28;20346;-60
2022/09/04 04:48:57;;;;;;;27.58;21.00;;;;;;;15.06;90.84;101415.25;5052102;28;20048;-60
2022/09/04 04:51:57;;;;;;;27.80;21.23;;;;;;;15.11;91.26;101428.22;5051749;28;20029;-59
2022/09/04 04:54:56;;;;;;;28.38;21.58;;;;;;;15.06;91.68;101426.38;5051290;28;20499;-59
2022/09/04 04:57:45;;;;;;;28.45;21.67;;;;;;;15.00;92.13;101422.13;5050555;28;20533;-61
2022/09/04 05:00:20;;;;;;;29.80;22.23;;;;;;;14.98;92.54;101419.63;5050611;28;20026;-61
2022/09/04 05:03:24;;;;;;;28.33;22.25;;;;;;;15.08;92.48;101431.63;5051482;28;20025;-59
2022/09/04 05:06:08;;;;;;;30.38;21.95;;;;;;;15.09;92.46;101436.06;5051458;28;20033;-60
2022/09/04 05:08:43;;;;;;;30.27;22.95;;;;;;;14.96;92.98;101421.94;5033062;28;20041;-60
2022/09/04 05:11:30;;;;;;;29.15;23.15;;;;;;;15.07;93.49;101441.97;5050868;28;20047;-60
2022/09/04 05:14:27;;;;;;;28.70;20.90;;;;;;;15.10;93.12;101444.13;5050665;28;20045;-60
2022/09/04 05:17:04;;;;;;;29.65;22.30;;;;;;;15.11;93.23;101450.50;5049760;28;20366;-59
2022/09/04 05:19:55;;;;;;;29.73;21.17;;;;;;;15.17;93.84;101448.38;5050916;28;20194;-60
2022/09/04 05:22:43;;;;;;;27.92;20.92;;;;;;;15.19;93.12;101449.69;5043233;28;20052;-59
2022/09/04 05:25:32;;;;;;;29.15;20.88;;;;;;;15.18;92.73;101448.06;5051369;28;20043;-60
2022/09/04 05:28:15;;;;;;;29.23;21.15;;;;;;;15.26;93.32;101454.81;5050603;28;20043;-60
2022/09/04 05:30:46;;;;;;;;;;;;;;;15.36;89.17;101470.41;5051159;28;20128;-59
2022/09/04 05:33:42;;;;;;;27.52;21.17;;;;;;;15.34;92.01;101467.94;5050514;28;20449;-61
2022/09/04 05:36:25;;;;;;;29.40;21.80;;;;;;;15.37;93.21;101484.03;5051086;28;20040;-59
2022/09/04 05:39:09;;;;;;;29.73;21.73;;;;;;;15.40;93.04;101483.38;5050666;28;20180;-60
2022/09/04 05:41:53;;;;;;;;;;;;;;;15.51;90.38;101483.06;5050804;28;20055;-59
2022/09/04 05:44:35;;;;;;;29.23;21.70;;;;;;;15.45;92.82;101479.59;5050996;28;20429;-61
2022/09/04 05:47:15;;;;;;;27.85;20.92;;;;;;;15.58;92.90;101495.41;5050204;28;20029;-59
2022/09/04 05:50:02;;;;;;;27.38;21.23;;;;;;;15.63;93.16;101499.19;5051073;28;20094;-60
2022/09/04 05:52:27;;;;;;;29.23;21.95;;;;;;;15.63;93.58;101494.44;5051267;28;20075;-61
2022/09/04 05:54:59;;;;;;;28.07;21.67;;;;;;;15.67;93.77;101502.97;5051337;28;20477;-60
2022/09/04 05:57:41;;;;;;;28.88;21.45;;;;;;;15.73;94.13;101512.81;5055337;28;20295;-60
2022/09/04 06:00:10;;;;;;;27.70;21.25;;;;;;;15.71;93.67;101506.75;5054871;28;20025;-60
2022/09/04 06:02:56;;;;;;;30.15;22.00;;;;;;;15.80;93.72;101507.59;5055213;28;20484;-61
2022/09/04 06:06:12;;;;;;;27.98;21.27;;;;;;;15.87;92.89;101519.13;5054757;28;20045;-60
2022/09/04 06:08:50;;;;;;;28.35;21.15;;;;;;;15.84;94.08;101507.78;5012859;28;20201;-62
2022/09/04 06:11:40;;;;;;;27.08;20.75;;;;;;;15.97;93.65;101523.53;5012969;28;20061;-62
2022/09/04 06:14:33;;;;;;;26.25;19.55;;;;;;;16.02;93.48;101519.78;5045800;28;20037;-61
2022/09/04 06:17:41;;;;;;;28.10;20.17;;;;;;;16.09;92.95;101522.09;5054482;28;20029;-62
2022/09/04 06:20:12;;;;;;;27.42;20.02;;;;;;;16.13;93.79;101523.09;5054667;28;20078;-62
2022/09/04 06:22:58;;;;;;;26.67;20.27;;;;;;;16.19;93.72;101519.81;5054522;28;20029;-62
2022/09/04 06:25:36;;;;;;;27.50;20.33;;;;;;;16.23;93.94;101517.19;5054364;28;20025;-62
2022/09/04 06:28:36;;;;;;;27.10;19.65;;;;;;;16.31;93.66;101518.31;5054479;28;20036;-61
2022/09/04 06:31:31;;;;;;;26.17;19.65;;;;;;;16.40;93.91;101521.91;5054250;28;20037;-62
2022/09/04 06:34:23;;;;;;;27.88;19.77;;;;;;;16.50;93.42;101529.16;5054227;28;20035;-61
2022/09/04 06:37:03;;;;;;;26.17;19.42;;;;;;;16.61;93.13;101535.22;5063155;28;20028;-60
2022/09/04 06:40:05;;;;;;;27.00;19.77;;;;;;;16.74;92.63;101539.81;5074081;28;20108;-61
2022/09/04 06:43:02;;;;;;;25.77;18.40;;;;;;;16.82;92.12;101538.13;5074133;28;20033;-60
2022/09/04 06:45:55;;;;;;;25.35;19.00;;;;;;;16.89;92.09;101534.81;5074090;28;20025;-61
2022/09/04 06:48:37;;;;;;;25.92;19.08;;;;;;;16.99;92.39;101537.28;5073854;28;20104;-61
2022/09/04 06:51:18;;;;;;;26.00;19.38;;;;;;;17.03;91.88;101537.44;5073893;28;20056;-61
2022/09/04 06:53:56;;;;;;;25.63;19.10;;;;;;;17.08;91.55;101540.88;5073883;28;20101;-61
2022/09/04 06:56:47;;;;;;;25.45;18.90;;;;;;;17.18;91.40;101544.47;5073451;28;20028;-61
2022/09/04 06:59:18;;;;;;;26.17;18.92;;;;;;;17.26;91.55;101544.44;5073713;28;20021;-60
2022/09/04 07:02:21;;;;;;;25.95;19.80;;;;;;;17.38;90.91;101543.72;5073621;28;20021;-61
2022/09/04 07:05:03;;;;;;;26.05;18.50;;;;;;;17.51;90.07;101536.25;5073740;28;20048;-60
2022/09/04 07:07:36;;;;;;;27.42;19.55;;;;;;;17.56;90.07;101541.69;5036619;28;20029;-61
2022/09/04 07:10:14;;;;;;;26.17;18.90;;;;;;;17.68;89.69;101549.34;5053702;28;20040;-59
2022/09/04 07:13:01;;;;;;;24.30;17.65;;;;;;;17.81;89.51;101544.66;5053565;28;20036;-60
2022/09/04 07:15:45;;;;;;;25.13;17.17;;;;;;;17.98;87.43;101551.31;5053326;28;20104;-60
2022/09/04 07:18:53;;;;;;;26.40;19.02;;;;;;;18.07;88.25;101552.91;5053096;28;20389;-61
2022/09/04 07:21:29;;;;;;;25.08;17.48;;;;;;;18.26;86.12;101565.63;5052946;28;20045;-59
2022/09/04 07:24:10;;;;;;;26.60;18.55;;;;;;;18.34;87.31;101570.34;5053274;28;20048;-60
2022/09/04 07:26:50;;;;;;;26.27;19.27;;;;;;;18.35;86.84;101557.13;5052692;28;20477;-60
2022/09/04 07:29:44;;;;;;;25.83;18.50;;;;;;;18.47;86.52;101557.22;5046518;28;20032;-59
2022/09/04 07:32:19;;;;;;;25.10;18.23;;;;;;;18.63;85.47;101565.81;5032596;28;20101;-60
2022/09/04 07:35:22;;;;;;;23.48;16.67;;;;;;;18.78;84.66;101560.72;5033220;28;20030;-59
2022/09/04 07:37:57;;;;;;;25.88;18.70;;;;;;;18.78;84.59;101564.34;5033585;28;20141;-60
2022/09/04 07:40:41;;;;;;;24.55;18.50;;;;;;;18.79;84.91;101557.59;5058896;28;20475;-62
2022/09/04 07:43:21;;;;;;;25.65;18.38;;;;;;;19.01;83.87;101567.59;5061298;28;20032;-61
2022/09/04 07:46:02;;;;;;;25.58;18.55;;;;;;;19.06;83.54;101566.56;5061367;28;20534;-61
2022/09/04 07:48:38;;;;;;;24.55;17.25;;;;;;;19.16;83.24;101570.88;5058879;28;20032;-60
2022/09/04 07:51:09;;;;;;;25.17;18.23;;;;;;;19.30;83.52;101576.16;5060718;28;20067;-61
2022/09/04 07:54:03;;;;;;;25.35;18.58;;;;;;;19.38;82.84;101580.03;5058705;28;20017;-61
2022/09/04 07:56:28;;;;;;;24.98;17.20;;;;;;;19.46;82.00;101587.53;5052821;28;20037;-61
2022/09/04 07:59:02;;;;;;;24.47;16.47;;;;;;;19.57;81.33;101583.09;5053787;28;20416;-60
2022/09/04 08:01:30;;;;;;;23.52;17.05;;;;;;;19.65;81.09;101592.56;5052978;28;20181;-60
2022/09/04 08:04:11;;;;;;;24.00;17.77;;;;;;;19.74;81.74;101593.25;5043223;28;20049;-62
2022/09/04 08:06:55;;;;;;;25.50;18.67;;;;;;;19.86;81.25;101591.66;5031689;28;20030;-61
2022/09/04 08:09:53;;;;;;;24.02;16.58;;;;;;;19.99;80.66;101598.06;5032878;28;20040;-61
2022/09/04 08:12:46;;;;;;;25.35;18.15;;;;;;;20.14;80.41;101590.91;5030402;28;20460;-61
2022/09/04 08:15:25;;;;;;;26.37;20.07;;;;;;;20.24;79.20;101591.25;5030404;28;20080;-61
2022/09/04 08:17:57;;;;;;;24.60;18.67;;;;;;;20.38;79.26;101602.13;5030338;28;20103;-61
2022/09/04 08:20:37;;;;;;;23.92;17.35;;;;;;;20.49;78.70;101596.81;5030332;28;20145;-61
2022/09/04 08:23:28;;;;;;;25.55;19.40;;;;;;;20.58;77.29;101588.22;5030925;28;20429;-62
2022/09/04 08:26:13;;;;;;;24.50;18.73;;;;;;;20.72;77.02;101599.88;5029771;28;20116;-60
2022/09/04 08:28:57;;;;;;;25.15;18.08;;;;;;;20.84;76.63;101601.03;5033100;28;20036;-61
2022/09/04 08:31:31;;;;;;;25.73;18.70;;;;;;;20.76;76.40;101591.56;5035937;28;20064;-63
2022/09/04 08:34:07;;;;;;;23.63;17.13;;;;;;;20.97;76.35;101601.78;5029769;28;20478;-59
2022/09/04 08:36:42;;;;;;;25.00;18.17;;;;;;;21.13;75.18;101597.00;5030464;28;20037;-61
2022/09/04 08:39:39;;;;;;;24.27;17.83;;;;;;;21.38;74.95;101612.91;5030340;28;20037;-61
2022/09/04 08:42:25;;;;;;;24.73;18.63;;;;;;;21.58;74.48;101606.25;5030203;28;20128;-60
2022/09/04 08:45:14;;;;;;;25.50;18.65;;;;;;;21.65;73.56;101605.59;5029951;28;20044;-62
2022/09/04 08:48:10;;;;;;;24.67;18.52;;;;;;;21.72;73.90;101613.41;5030225;28;20108;-62
2022/09/04 08:51:10;;;;;;;23.77;17.35;;;;;;;21.78;73.32;101607.13;5029779;28;20044;-61
2022/09/04 08:53:58;;;;;;;26.20;18.30;;;;;;;21.95;72.72;101616.38;5029654;28;20055;-60
2022/09/04 08:56:39;;;;;;;24.70;18.15;;;;;;;22.07;72.10;101619.06;5029681;28;20715;-60
2022/09/04 08:59:07;;;;;;;27.35;17.75;;;;;;;22.25;71.26;101622.31;5029811;28;20099;-61
2022/09/04 09:01:45;;;;;;;25.52;18.13;;;;;;;22.28;71.11;101613.13;5029980;28;20052;-60
2022/09/04 09:04:46;;;;;;;24.13;17.75;;;;;;;22.44;70.99;101618.72;5039985;28;20053;-61
2022/09/04 09:07:25;;;;;;;24.80;17.30;;;;;;;22.55;70.43;101606.84;5049521;28;20028;-61
2022/09/04 09:10:39;;;;;;;24.73;17.42;;;;;;;22.62;69.56;101618.31;5049747;28;20486;-61
2022/09/04 09:13:31;;;;;;;22.52;16.23;;;;;;;22.67;68.79;101615.19;4987469;28;20137;-60
2022/09/04 09:16:14;;;;;;;24.83;17.42;;;;;;;22.71;68.21;101618.06;5048257;28;20485;-61
2022/09/04 09:18:47;;;;;;;25.05;17.65;;;;;;;22.70;68.21;101616.44;5049016;28;20492;-61
2022/09/04 09:21:59;;;;;;;25.13;18.00;;;;;;;22.85;68.53;101615.56;5049919;28;20108;-61
2022/09/04 09:25:00;;;;;;;24.45;16.95;;;;;;;22.97;67.44;101622.19;5049290;28;20392;-62
2022/09/04 09:27:35;;;;;;;24.10;16.40;;;;;;;23.02;66.52;101613.44;5049415;28;20070;-61
2022/09/04 09:30:21;;;;;;;21.85;14.50;;;;;;;23.08;66.46;101613.97;5049707;28;20032;-59
2022/09/04 09:33:31;;;;;;;21.42;13.63;;;;;;;23.30;65.91;101612.38;5052995;28;20036;-60
2022/09/04 09:36:23;;;;;;;20.23;13.68;;;;;;;23.44;64.44;101609.78;5053482;28;20465;-62
2022/09/04 09:39:11;;;;;;;20.67;13.48;;;;;;;23.48;63.43;101613.50;5053297;28;20113;-61
2022/09/04 09:41:47;;;;;;;21.98;12.95;;;;;;;23.50;63.07;101610.28;5053502;28;20043;-61
2022/09/04 09:44:34;;;;;;;20.80;12.57;;;;;;;23.65;62.77;101615.00;5053220;28;20071;-61
2022/09/04 09:47:37;;;;;;;20.73;12.20;;;;;;;23.80;62.89;101620.88;5063955;28;20032;-60
2022/09/04 09:50:24;;;;;;;20.55;12.55;;;;;;;23.83;61.48;101626.56;5061109;28;20094;-61
2022/09/04 09:53:27;;;;;;;20.30;12.13;;;;;;;23.91;61.59;101621.88;5053228;28;20098;-61
2022/09/04 09:56:23;;;;;;;19.90;12.40;;;;;;;23.96;61.32;101623.59;5052583;28;20139;-60
2022/09/04 09:59:13;;;;;;;20.73;11.05;;;;;;;24.10;60.62;101618.13;5053099;28;20048;-61
2022/09/04 10:02:15;;;;;;;20.10;11.23;;;;;;;24.30;59.08;101618.84;5052609;28;20037;-58
2022/09/04 10:04:58;;;;;;;17.67;9.57;;;;;;;24.30;58.60;101626.50;5024521;28;20040;-62
2022/09/04 10:07:46;;;;;;;17.73;9.77;;;;;;;24.36;58.68;101621.31;5061803;28;20025;-60
2022/09/04 10:10:48;;;;;;;17.63;10.45;;;;;;;24.39;58.40;101615.72;5068226;28;20118;-60
2022/09/04 10:13:35;;;;;;;16.77;9.63;;;;;;;24.57;57.69;101618.78;5053016;28;20032;-61
2022/09/04 10:16:33;;;;;;;17.95;10.02;;;;;;;24.73;57.61;101606.47;5052767;28;20037;-61
2022/09/04 10:19:16;;;;;;;17.27;9.38;;;;;;;25.00;57.71;101610.00;5052615;28;20056;-61
2022/09/04 10:22:03;;;;;;;15.98;8.57;;;;;;;25.11;55.99;101612.94;5052349;28;20551;-60
2022/09/04 10:25:06;;;;;;;13.80;8.52;;;;;;;25.30;55.99;101611.09;5052316;28;20041;-58
2022/09/04 10:27:44;;;;;;;14.15;8.50;;;;;;;25.48;54.27;101614.13;4985950;28;20045;-61
2022/09/04 10:30:15;;;;;;;15.40;8.50;;;;;;;25.43;53.62;101598.31;5053820;28;20055;-61
2022/09/04 10:33:17;;;;;;;16.23;8.70;;;;;;;25.44;53.95;101610.44;5072174;28;20028;-61
2022/09/04 10:35:58;;;;;;;13.60;8.05;;;;;;;25.25;54.01;101615.09;5048137;28;20044;-59
2022/09/04 10:41:58;;;;;;;13.82;8.15;;;;;;;25.35;53.30;101617.22;5072203;28;20043;-60
2022/09/04 10:44:54;;;;;;;14.88;8.48;;;;;;;25.41;54.22;101614.09;5071372;28;20025;-60
2022/09/04 10:47:44;;;;;;;16.05;9.18;;;;;;;25.51;53.30;101614.16;5069729;28;20435;-60
2022/09/04 10:50:33;;;;;;;15.35;8.50;;;;;;;25.87;52.77;101622.16;5068340;28;20037;-61
2022/09/04 10:53:19;;;;;;;14.10;8.70;;;;;;;26.09;52.22;101608.13;5048015;28;20071;-61
2022/09/04 10:55:59;;;;;;;15.82;9.02;;;;;;;26.31;51.59;101607.06;5061545;28;20488;-61
2022/09/04 10:58:47;;;;;;;16.33;9.10;;;;;;;26.61;50.08;101617.31;5062139;28;20033;-60
2022/09/04 11:01:53;;;;;;;15.65;8.18;;;;;;;26.87;50.55;101617.44;5071733;28;20036;-61
2022/09/04 11:04:45;;;;;;;15.35;8.27;;;;;;;26.91;48.21;101598.38;5071718;28;20052;-61
2022/09/04 11:07:28;;;;;;;17.08;8.30;;;;;;;27.08;48.36;101620.31;5071852;28;20028;-61
2022/09/04 11:09:56;;;;;;;15.35;8.73;;;;;;;27.32;46.63;101608.59;5071644;28;20035;-60
2022/09/04 11:12:50;;;;;;;12.18;7.68;;;;;;;27.53;46.19;101608.63;5071811;28;20120;-61
2022/09/04 11:15:34;;;;;;;11.95;8.02;;;;;;;27.58;44.93;101607.41;5044599;28;20396;-61
2022/09/04 11:18:32;;;;;;;13.82;7.82;;;;;;;27.67;45.99;101609.88;5031715;28;20033;-60
2022/09/04 11:21:01;;;;;;;15.15;7.90;;;;;;;27.38;44.77;101612.69;5031486;28;20028;-60
2022/09/04 11:23:47;;;;;;;12.90;7.57;;;;;;;27.43;44.45;101611.47;5031615;28;20068;-60
2022/09/04 11:26:40;;;;;;;11.73;7.47;;;;;;;27.54;43.81;101607.44;5030903;28;20473;-59
2022/09/04 11:29:23;;;;;;;10.65;6.80;;;;;;;27.70;43.11;101603.34;5031298;28;20037;-61
2022/09/04 11:32:00;;;;;;;12.55;7.72;;;;;;;27.67;41.49;101604.97;5029636;28;20123;-61
2022/09/04 11:34:50;;;;;;;11.55;7.80;;;;;;;27.80;43.41;101608.22;5031302;28;20037;-61
2022/09/04 11:37:24;;;;;;;11.63;7.85;;;;;;;27.87;42.44;101611.03;5031465;28;20037;-61
2022/09/04 11:39:52;;;;;;;10.80;6.80;;;;;;;27.97;41.01;101608.59;5031217;28;20446;-61
2022/09/04 11:42:31;;;;;;;12.80;7.70;;;;;;;28.03;41.14;101592.75;5031482;28;20065;-62
2022/09/04 11:45:19;;;;;;;12.73;7.60;;;;;;;28.22;40.48;101614.25;5031283;28;20034;-61
2022/09/04 11:48:25;;;;;;;11.50;7.38;;;;;;;28.34;40.78;101610.16;5030526;28;20045;-61
2022/09/04 11:51:23;;;;;;;12.02;7.57;;;;;;;28.37;38.97;101609.31;5030665;28;20040;-59
2022/09/04 11:54:07;;;;;;;11.63;7.90;;;;;;;28.26;39.79;101617.91;5030461;28;20040;-61
2022/09/04 11:57:29;;;;;;;12.98;7.60;;;;;;;28.20;40.26;101621.59;5030770;28;20121;-60
2022/09/04 12:00:06;;;;;;;12.75;7.70;;;;;;;27.77;39.89;101620.41;4969017;28;20129;-60
2022/09/04 12:02:47;;;;;;;13.32;8.13;;;;;;;27.58;40.65;101618.00;4969356;28;20467;-60
2022/09/04 12:05:42;;;;;;;12.65;7.57;;;;;;;27.44;40.30;101613.91;5015123;28;20137;-60
2022/09/04 12:08:28;;;;;;;12.23;7.47;;;;;;;27.36;40.18;101609.41;5030517;28;20152;-61
2022/09/04 12:11:21;;;;;;;12.38;7.40;;;;;;;27.32;41.43;101614.28;5030414;28;20036;-61
2022/09/04 12:13:57;;;;;;;13.32;7.80;;;;;;;27.31;40.94;101619.16;5030250;28;20030;-61
2022/09/04 12:16:47;;;;;;;13.52;7.68;;;;;;;27.27;40.37;101623.22;5030256;28;20033;-61
2022/09/04 12:19:17;;;;;;;12.13;7.50;;;;;;;27.32;40.12;101619.94;5029669;28;20120;-61
2022/09/04 12:21:54;;;;;;;14.20;7.70;;;;;;;27.45;39.95;101626.06;5030196;28;20055;-60
2022/09/04 12:24:38;;;;;;;13.60;7.78;;;;;;;27.71;40.08;101633.41;5030416;28;20602;-61
2022/09/04 12:27:35;;;;;;;14.25;7.53;;;;;;;27.82;39.34;101630.56;5030252;28;20029;-61
2022/09/04 12:30:13;;;;;;;13.43;7.93;;;;;;;27.80;38.92;101635.84;5030069;28;20026;-61
2022/09/04 12:32:41;;;;;;;14.75;7.88;;;;;;;27.74;38.19;101626.06;5030321;28;20033;-61
2022/09/04 12:35:29;;;;;;;12.55;7.50;;;;;;;27.81;39.23;101635.44;5030199;28;20067;-60
2022/09/04 12:38:08;;;;;;;13.95;7.55;;;;;;;27.97;39.30;101623.63;5030130;28;20064;-61
2022/09/04 12:40:58;;;;;;;15.02;7.82;;;;;;;28.06;38.13;101628.88;5029708;28;20053;-60
2022/09/04 12:43:41;;;;;;;14.07;7.90;;;;;;;28.11;38.30;101625.66;5029973;28;20029;-62